createdAt,value
2023-03-24T00:03:10.817Z,15.45
2023-03-24T00:07:11.334Z,15.36
2023-03-24T00:11:11.868Z,15.36
2023-03-24T00:15:12.434Z,15.25
2023-03-24T00:19:12.978Z,15.19
2023-03-24T00:23:13.548Z,15.14
2023-03-24T00:27:14.127Z,15.14
2023-03-24T00:31:14.790Z,15.08
2023-03-24T00:35:15.254Z,15.06
2023-03-24T00:39:16.472Z,15.04
2023-03-24T00:43:16.416Z,15.05
2023-03-24T00:47:17.031Z,14.99
2023-03-24T00:51:17.626Z,14.91
2023-03-24T00:55:18.245Z,14.91
2023-03-24T00:59:18.844Z,14.83
2023-03-24T01:03:19.533Z,14.83
2023-03-24T01:07:20.018Z,14.87
2023-03-24T01:11:20.624Z,14.84
2023-03-24T01:15:21.318Z,14.84
2023-03-24T01:19:21.786Z,14.74
2023-03-24T01:23:22.413Z,14.78
2023-03-24T01:27:23.082Z,14.80
2023-03-24T01:31:23.772Z,14.77
2023-03-24T01:35:24.925Z,14.76
2023-03-24T01:39:25.127Z,14.77
2023-03-24T01:43:25.770Z,14.80
2023-03-24T01:47:26.519Z,14.77
2023-03-24T01:51:27.068Z,14.73
2023-03-24T01:55:27.762Z,14.69
2023-03-24T01:59:28.428Z,14.63
2023-03-24T02:03:29.094Z,14.66
2023-03-24T02:07:30.007Z,14.60
2023-03-24T02:11:30.493Z,14.59
2023-03-24T02:15:31.191Z,14.58
2023-03-24T02:19:31.873Z,14.53
2023-03-24T02:23:32.673Z,14.31
2023-03-24T02:27:33.237Z,14.33
2023-03-24T02:31:33.926Z,14.04
2023-03-24T02:35:34.609Z,14.15
2023-03-24T02:39:35.269Z,14.22
2023-03-24T02:43:35.993Z,14.31
2023-03-24T02:47:36.730Z,14.21
2023-03-24T02:51:37.388Z,14.04
2023-03-24T02:55:38.133Z,14.25
2023-03-24T02:59:38.895Z,14.25
2023-03-24T03:03:39.682Z,14.26
2023-03-24T03:07:40.454Z,14.26
2023-03-24T03:11:41.266Z,14.22
2023-03-24T03:15:42.141Z,14.19
2023-03-24T03:19:42.910Z,14.17
2023-03-24T03:23:43.756Z,14.05
2023-03-24T03:27:44.602Z,14.05
2023-03-24T03:31:45.447Z,13.91
2023-03-24T03:35:46.477Z,13.96
2023-03-24T03:39:47.161Z,14.00
2023-03-24T03:43:48.020Z,13.88
2023-03-24T03:47:50.543Z,13.90
2023-03-24T03:51:49.808Z,13.87
2023-03-24T03:55:50.666Z,13.91
2023-03-24T03:59:51.609Z,13.93
2023-03-24T04:03:52.504Z,13.87
2023-03-24T04:07:53.403Z,13.85
2023-03-24T04:11:54.305Z,13.88
2023-03-24T04:15:55.258Z,13.90
2023-03-24T04:19:56.128Z,13.90
2023-03-24T04:23:56.944Z,13.90
2023-03-24T04:27:57.838Z,13.77
2023-03-24T04:31:58.712Z,13.77
2023-03-24T04:35:59.662Z,13.78
2023-03-24T04:40:00.487Z,13.84
2023-03-24T04:44:01.544Z,13.83
2023-03-24T04:48:02.236Z,13.85
2023-03-24T04:52:03.114Z,13.90
2023-03-24T04:56:03.940Z,13.91
2023-03-24T05:00:04.836Z,13.81
2023-03-24T05:04:05.700Z,13.83
2023-03-24T05:08:06.521Z,13.91
2023-03-24T05:12:07.367Z,13.93
2023-03-24T05:16:08.289Z,13.96
2023-03-24T05:20:08.959Z,13.98
2023-03-24T05:24:09.728Z,14.00
2023-03-24T05:28:10.618Z,13.84
2023-03-24T05:32:11.481Z,13.56
2023-03-24T05:36:12.389Z,13.81
2023-03-24T05:40:13.189Z,13.88
2023-03-24T05:44:13.998Z,13.94
2023-03-24T05:48:14.779Z,13.94
2023-03-24T05:52:16.060Z,14.01
2023-03-24T05:56:16.443Z,14.07
2023-03-24T06:00:17.355Z,14.08
2023-03-24T06:04:18.196Z,14.14
2023-03-24T06:08:19.033Z,14.04
2023-03-24T06:12:19.860Z,14.14
2023-03-24T06:16:20.755Z,14.07
2023-03-24T06:20:21.637Z,14.12
2023-03-24T06:24:22.460Z,14.15
2023-03-24T06:28:23.369Z,14.08
2023-03-24T06:32:24.390Z,14.18
2023-03-24T06:36:24.956Z,14.24
2023-03-24T06:40:25.700Z,14.36
2023-03-24T06:44:26.430Z,14.47
2023-03-24T06:48:27.184Z,14.47
2023-03-24T06:52:27.918Z,14.56
2023-03-24T06:56:28.705Z,14.40
2023-03-24T07:00:29.419Z,14.56
2023-03-24T07:04:30.165Z,14.69
2023-03-24T07:08:38.143Z,14.78
2023-03-24T07:12:32.446Z,14.91
2023-03-24T07:16:32.121Z,14.81
2023-03-24T07:20:33.488Z,14.90
2023-03-24T07:24:34.132Z,14.97
2023-03-24T07:28:33.836Z,14.97
2023-03-24T07:32:34.481Z,15.12
2023-03-24T07:36:35.081Z,15.25
2023-03-24T07:40:35.690Z,15.12
2023-03-24T07:44:36.590Z,15.12
2023-03-24T07:48:37.102Z,15.09
2023-03-24T07:52:37.728Z,15.08
2023-03-24T07:56:38.408Z,15.35
2023-03-24T08:00:39.022Z,15.61
2023-03-24T08:04:39.621Z,15.74
2023-03-24T08:08:40.118Z,15.73
2023-03-24T08:12:40.642Z,15.87
2023-03-24T08:16:41.239Z,16.02
2023-03-24T08:20:41.690Z,16.18
2023-03-24T08:24:42.259Z,16.19
2023-03-24T08:28:42.768Z,16.11
2023-03-24T08:32:43.349Z,16.32
2023-03-24T08:36:43.753Z,16.57
2023-03-24T08:40:44.329Z,16.68
2023-03-24T08:44:44.992Z,16.59
2023-03-24T08:48:45.637Z,16.81
2023-03-24T08:52:46.214Z,16.91
2023-03-24T08:56:46.885Z,16.81
2023-03-24T09:00:47.609Z,16.87
2023-03-24T09:04:48.104Z,16.95
2023-03-24T09:08:48.677Z,17.08
2023-03-24T09:12:49.144Z,17.22
2023-03-24T09:16:49.722Z,17.25
2023-03-24T09:20:50.354Z,17.08
2023-03-24T09:24:50.604Z,17.23
2023-03-24T09:28:51.051Z,17.11
2023-03-24T09:32:51.687Z,17.25
2023-03-24T09:36:51.910Z,17.44
2023-03-24T09:40:52.340Z,17.58
2023-03-24T09:44:52.754Z,17.51
2023-03-24T09:48:53.176Z,17.33
2023-03-24T09:52:53.640Z,17.27
2023-03-24T09:56:54.074Z,17.30
2023-03-24T10:00:56.214Z,17.37
2023-03-24T10:04:54.894Z,17.66
2023-03-24T10:08:55.279Z,17.82
2023-03-24T10:12:55.688Z,17.91
2023-03-24T10:16:56.059Z,17.99
2023-03-24T10:20:57.034Z,17.95
2023-03-24T10:24:56.812Z,18.02
2023-03-24T10:28:57.221Z,18.02
2023-03-24T10:32:57.637Z,18.26
2023-03-24T10:36:57.971Z,18.43
2023-03-24T10:40:58.331Z,18.51
2023-03-24T10:44:58.687Z,18.60
2023-03-24T10:48:59.030Z,18.51
2023-03-24T10:52:59.372Z,18.51
2023-03-24T10:56:59.838Z,18.51
2023-03-24T11:01:00.128Z,18.40
2023-03-24T11:05:00.431Z,18.39
2023-03-24T11:09:00.780Z,18.53
2023-03-24T11:13:01.110Z,18.57
2023-03-24T11:17:01.500Z,18.71
2023-03-24T11:21:01.872Z,18.76
2023-03-24T11:25:02.411Z,18.65
2023-03-24T11:29:03.001Z,18.67
2023-03-24T11:33:03.361Z,18.65
2023-03-24T11:37:03.799Z,18.72
2023-03-24T11:41:04.044Z,18.78
2023-03-24T11:45:04.439Z,18.53
2023-03-24T11:49:04.825Z,18.50
2023-03-24T11:53:05.217Z,18.71
2023-03-24T11:57:05.619Z,18.98
2023-03-24T16:17:29.687Z,16.60
2023-03-24T17:49:43.658Z,15.09
2023-03-24T17:53:44.284Z,14.98
2023-03-24T17:57:44.929Z,15.09
2023-03-24T18:01:45.643Z,15.18
2023-03-24T18:05:46.347Z,15.22
2023-03-24T18:09:47.036Z,15.33
2023-03-24T18:13:47.710Z,15.23
2023-03-24T18:17:48.420Z,15.26
2023-03-24T18:21:49.151Z,15.26
2023-03-24T18:25:50.262Z,15.31
2023-03-24T18:29:50.371Z,15.18
2023-03-24T18:33:51.323Z,15.05
2023-03-24T18:41:53.647Z,14.90
2023-03-24T18:45:53.116Z,14.77
2023-03-24T18:49:53.592Z,14.80
2023-03-24T18:53:54.244Z,14.67
2023-03-24T18:57:54.891Z,14.58
2023-03-24T19:01:55.669Z,14.28
2023-03-24T19:05:56.430Z,14.37
2023-03-24T19:09:57.197Z,14.53
2023-03-24T19:13:57.942Z,14.64
2023-03-24T19:17:59.533Z,14.56
2023-03-24T19:21:59.437Z,14.66
2023-03-24T19:26:00.290Z,14.73
2023-03-24T19:30:01.067Z,14.71
2023-03-24T19:34:01.665Z,14.74
2023-03-24T19:38:02.358Z,14.71
2023-03-24T19:42:03.065Z,14.70
2023-03-24T19:46:03.790Z,14.62
2023-03-24T19:50:04.481Z,14.60
2023-03-24T19:54:05.206Z,14.63
2023-03-24T19:58:05.939Z,14.59
2023-03-24T20:02:06.690Z,14.59
2023-03-24T20:06:07.358Z,14.58
2023-03-24T20:10:08.061Z,14.60
2023-03-24T20:14:08.784Z,14.64
2023-03-24T20:18:09.713Z,14.69
2023-03-24T20:22:10.315Z,14.50
2023-03-24T20:26:11.322Z,14.28
2023-03-24T20:30:11.917Z,14.40
2023-03-24T20:34:12.618Z,14.28
2023-03-24T20:38:13.356Z,14.37
2023-03-24T20:42:14.075Z,14.46
2023-03-24T20:46:14.821Z,14.43
2023-03-24T20:50:15.560Z,14.31
2023-03-24T20:54:16.323Z,14.15
2023-03-24T20:58:17.121Z,14.01
2023-03-24T21:02:17.930Z,13.38
2023-03-24T21:06:18.762Z,13.50
2023-03-24T21:10:19.601Z,13.74
2023-03-24T21:14:20.484Z,13.85
2023-03-24T21:18:21.368Z,13.88
2023-03-24T21:22:23.572Z,13.59
2023-03-24T21:26:22.652Z,13.69
2023-03-24T21:30:23.308Z,13.52
2023-03-24T21:34:24.174Z,13.42
2023-03-24T21:38:25.021Z,13.48
2023-03-24T21:42:25.913Z,13.48
2023-03-24T21:46:27.838Z,13.41
2023-03-24T21:50:27.534Z,13.26
2023-03-24T21:54:28.201Z,13.31
2023-03-24T21:58:28.873Z,13.41
2023-03-24T22:02:29.536Z,13.43
2023-03-24T22:06:30.219Z,13.28
2023-03-24T22:10:30.893Z,12.76
2023-03-24T22:14:31.751Z,12.60
2023-03-24T22:18:32.316Z,12.21
2023-03-24T22:22:33.007Z,12.07
2023-03-24T22:26:33.746Z,12.04
2023-03-24T22:30:34.482Z,11.51
2023-03-24T22:34:35.250Z,11.37
2023-03-24T22:38:36.031Z,11.15
2023-03-24T22:42:36.760Z,11.18
2023-03-24T22:46:37.542Z,11.64
2023-03-24T22:50:38.191Z,12.05
2023-03-24T22:54:39.045Z,11.76
2023-03-24T22:58:40.386Z,11.66
2023-03-24T23:02:40.691Z,12.04
2023-03-24T23:06:41.314Z,12.34
2023-03-24T23:10:42.029Z,12.42
2023-03-24T23:14:42.748Z,12.49
2023-03-24T23:18:43.449Z,12.57
2023-03-24T23:22:44.178Z,12.63
2023-03-24T23:26:44.903Z,12.75
2023-03-24T23:30:45.610Z,12.79
2023-03-24T23:34:46.332Z,12.88
2023-03-24T23:38:47.054Z,12.96
2023-03-24T23:42:47.783Z,13.00
2023-03-24T23:46:48.481Z,12.84
2023-03-24T23:50:49.201Z,12.75
2023-03-24T23:54:49.913Z,12.80
2023-03-24T23:58:50.625Z,12.73
